Terminal Aerodrome Forecast
Issued by NWS Shreveport, LA

Home | Current Version | Previous Version | Text Only | Print | Product List | Glossary On
Versions: 1 2 3 4 5 6 7 8 9 10 11 12 13 14 15 16 17 18 19 20 21 22
100
FTUS44 KSHV 241735
TAFSHV
TAF
KSHV 241735Z 2418/2518 17016G25KT P6SM FEW025 BKN035
     FM242200 18018G28KT P6SM VCTS BKN040 OVC050CB
     FM250000 VRB20G30KT 3SM TSRA OVC045CB
     FM250500 20013G20KT P6SM VCTS BKN040CB
     FM251200 27010KT P6SM SCT250=

USA.gov is the U.S. government's official web portal to all federal, state and local government web resources and services.